Time;durP1;ratioP1;P1;durP2;ratioP2;P2;SDS_P1;SDS_P2;PMS_P1;PMS_P2;Temp;Humidity;BMP_temperature;BMP_pressure;BME280_temperature;BME280_humidity;BME280_pressure;Samples;Min_cycle;Max_cycle;Signal;HPM_P1;HPM_P2
2022/01/13 00:01:32;;;;;;;12.95;6.43;;;;;;;;;;5072145;28;20036;-38
2022/01/13 00:03:58;;;;;;;15.65;6.55;;;;;;;;;;5072234;28;20391;-37
2022/01/13 00:06:23;;;;;;;16.88;8.00;;;;;;;;;;5072422;28;20032;-37
2022/01/13 00:08:49;;;;;;;21.52;7.90;;;;;;;;;;5087561;28;20024;-37
2022/01/13 00:11:14;;;;;;;17.83;6.97;;;;;;;;;;5071854;28;20071;-37
2022/01/13 00:14:10;;;;;;;16.50;6.00;;;;;;;;;;5072190;28;20019;-40
2022/01/13 00:21:42;;;;;;;18.23;6.97;;;;;;;;;;5072140;28;20032;-38
2022/01/13 00:24:12;;;;;;;16.00;6.18;;;;;;;;;;5071510;28;20032;-37
2022/01/13 00:26:38;;;;;;;15.75;7.75;;;;;;;;;;5072072;28;20043;-38
2022/01/13 00:29:03;;;;;;;19.83;7.00;;;;;;;;;;5070283;28;20032;-38
2022/01/13 00:31:32;;;;;;;14.48;6.30;;;;;;;;;;5071795;28;20047;-38
2022/01/13 00:33:58;;;;;;;13.93;5.40;;;;;;;;;;5071853;28;20062;-38
2022/01/13 00:36:25;;;;;;;18.02;8.65;;;;;;;;;;5071902;28;20112;-37
2022/01/13 00:38:50;;;;;;;12.18;5.03;;;;;;;;;;5071647;28;20017;-37
2022/01/13 00:41:16;;;;;;;19.50;9.95;;;;;;;;;;5071330;28;20052;-37
2022/01/13 00:43:42;;;;;;;25.83;9.27;;;;;;;;;;5071472;28;20064;-37
2022/01/13 00:46:09;;;;;;;18.90;6.82;;;;;;;;;;5071449;28;20540;-38
2022/01/13 00:48:34;;;;;;;13.18;5.90;;;;;;;;;;5071478;28;20020;-37
2022/01/13 00:51:00;;;;;;;21.45;8.27;;;;;;;;;;5071596;28;20386;-37
2022/01/13 00:53:25;;;;;;;19.98;7.72;;;;;;;;;;5069993;28;20025;-37
2022/01/13 00:55:59;;;;;;;10.02;6.03;;;;;;;;;;5071427;28;20070;-38
2022/01/13 00:58:29;;;;;;;18.08;7.90;;;;;;;;;;5071304;28;20489;-38
2022/01/13 01:00:55;;;;;;;20.52;9.13;;;;;;;;;;5071565;28;20060;-37
2022/01/13 01:03:21;;;;;;;19.85;7.78;;;;;;;;;;5070842;28;20030;-37
2022/01/13 01:05:47;;;;;;;18.83;6.97;;;;;;;;;;5071202;28;20016;-37
2022/01/13 01:08:12;;;;;;;15.48;6.38;;;;;;;;;;5071462;28;20037;-37
2022/01/13 01:10:38;;;;;;;11.35;4.70;;;;;;;;;;5069834;28;20025;-37
2022/01/13 01:13:13;;;;;;;15.98;7.60;;;;;;;;;;5071253;28;20040;-37
2022/01/13 01:15:42;;;;;;;18.33;6.47;;;;;;;;;;5071182;28;20107;-38
2022/01/13 01:18:19;;;;;;;19.95;7.80;;;;;;;;;;5071300;28;20021;-37
2022/01/13 01:20:52;;;;;;;12.50;5.20;;;;;;;;;;5071122;28;20120;-37
2022/01/13 01:23:22;;;;;;;12.85;6.07;;;;;;;;;;5071025;28;20044;-38
2022/01/13 01:26:00;;;;;;;20.27;9.15;;;;;;;;;;5086727;28;20029;-37
2022/01/13 01:28:36;;;;;;;12.02;6.85;;;;;;;;;;5071589;28;20455;-38
2022/01/13 01:31:01;;;;;;;20.90;8.75;;;;;;;;;;5071182;28;20447;-38
2022/01/13 01:33:26;;;;;;;15.02;5.43;;;;;;;;;;5071018;28;20099;-38
2022/01/13 01:35:54;;;;;;;19.48;7.82;;;;;;;;;;5071041;28;20028;-37
2022/01/13 01:38:20;;;;;;;23.67;7.93;;;;;;;;;;5071066;28;20471;-37
2022/01/13 01:40:45;;;;;;;25.25;10.05;;;;;;;;;;5070924;28;20056;-37
2022/01/13 01:43:11;;;;;;;14.77;4.65;;;;;;;;;;5070645;28;20094;-38
2022/01/13 01:45:43;;;;;;;16.33;5.68;;;;;;;;;;5070840;28;20037;-37
2022/01/13 01:48:10;;;;;;;18.75;5.28;;;;;;;;;;5070852;28;20737;-38
2022/01/13 01:50:37;;;;;;;11.63;5.45;;;;;;;;;;5070778;28;20035;-38
2022/01/13 01:53:03;;;;;;;18.60;6.15;;;;;;;;;;5070648;28;20052;-38
2022/01/13 01:55:29;;;;;;;12.00;6.30;;;;;;;;;;5070729;28;20378;-38
2022/01/13 01:57:57;;;;;;;15.82;6.90;;;;;;;;;;5069383;28;20029;-37
2022/01/13 02:00:26;;;;;;;18.02;7.72;;;;;;;;;;5069505;28;20496;-37
2022/01/13 02:02:51;;;;;;;12.68;5.28;;;;;;;;;;5070920;28;20032;-37
2022/01/13 02:05:17;;;;;;;16.13;7.28;;;;;;;;;;5070651;28;20474;-37
2022/01/13 02:07:42;;;;;;;14.27;6.70;;;;;;;;;;5070693;28;20025;-37
2022/01/13 02:10:08;;;;;;;15.07;6.45;;;;;;;;;;5070830;28;20090;-37
2022/01/13 02:12:42;;;;;;;13.57;6.88;;;;;;;;;;5070476;28;20111;-37
2022/01/13 02:17:34;;;;;;;22.27;8.10;;;;;;;;;;5074153;28;20143;-38
2022/01/13 02:20:00;;;;;;;12.57;5.88;;;;;;;;;;5074088;28;20100;-38
2022/01/13 02:22:26;;;;;;;10.38;5.35;;;;;;;;;;5074142;28;20440;-38
2022/01/13 02:24:51;;;;;;;14.18;5.30;;;;;;;;;;5074337;28;20378;-38
2022/01/13 02:27:17;;;;;;;15.10;5.60;;;;;;;;;;5073961;28;20016;-38
2022/01/13 02:29:43;;;;;;;20.13;7.43;;;;;;;;;;5074101;28;20045;-38
2022/01/13 02:32:08;;;;;;;17.75;7.80;;;;;;;;;;5073767;28;20036;-38
2022/01/13 02:34:34;;;;;;;17.85;7.20;;;;;;;;;;5073878;28;20449;-37
2022/01/13 02:36:59;;;;;;;18.23;6.28;;;;;;;;;;5073804;28;20078;-37
2022/01/13 02:39:27;;;;;;;14.07;6.63;;;;;;;;;;5073798;28;20074;-38
2022/01/13 02:41:52;;;;;;;17.05;7.60;;;;;;;;;;5073617;28;20106;-38
2022/01/13 02:44:21;;;;;;;10.55;5.45;;;;;;;;;;5073583;28;20044;-38
2022/01/13 02:49:17;;;;;;;24.40;7.90;;;;;;;;;;5073811;28;20055;-37
2022/01/13 02:51:43;;;;;;;14.82;5.97;;;;;;;;;;5073774;28;20089;-37
2022/01/13 02:54:09;;;;;;;19.85;7.20;;;;;;;;;;5073770;28;20089;-38
2022/01/13 02:56:36;;;;;;;21.65;7.22;;;;;;;;;;5073746;28;20470;-37
2022/01/13 02:59:01;;;;;;;14.55;6.00;;;;;;;;;;5073727;28;20483;-38
2022/01/13 03:01:27;;;;;;;17.55;7.78;;;;;;;;;;5073457;28;20017;-38
2022/01/13 03:03:52;;;;;;;18.77;6.53;;;;;;;;;;5073371;28;20043;-38
2022/01/13 03:06:27;;;;;;;19.77;8.48;;;;;;;;;;5073587;28;20146;-38
2022/01/13 03:08:53;;;;;;;18.38;5.88;;;;;;;;;;5073374;28;20037;-38
2022/01/13 03:11:19;;;;;;;19.40;8.23;;;;;;;;;;5073083;28;20032;-38
2022/01/13 03:13:45;;;;;;;16.02;6.30;;;;;;;;;;5073039;28;20040;-37
2022/01/13 03:16:11;;;;;;;15.35;6.63;;;;;;;;;;5073082;28;20031;-37
2022/01/13 03:18:37;;;;;;;13.00;6.85;;;;;;;;;;5073159;28;20543;-38
2022/01/13 03:21:03;;;;;;;15.77;5.80;;;;;;;;;;5072873;28;20135;-37
2022/01/13 03:23:28;;;;;;;20.35;9.20;;;;;;;;;;5072867;28;20033;-37
2022/01/13 03:25:54;;;;;;;23.50;8.23;;;;;;;;;;5072473;28;20036;-38
2022/01/13 03:28:29;;;;;;;11.75;4.95;;;;;;;;;;5072730;28;20033;-38
2022/01/13 03:30:55;;;;;;;21.88;8.13;;;;;;;;;;5072921;28;20028;-37
2022/01/13 03:33:21;;;;;;;20.85;8.77;;;;;;;;;;5072577;28;20395;-37
2022/01/13 03:35:46;;;;;;;19.70;8.18;;;;;;;;;;5072740;28;20040;-38
2022/01/13 03:38:11;;;;;;;20.20;8.23;;;;;;;;;;5072631;28;20020;-37
2022/01/13 03:40:37;;;;;;;17.95;7.68;;;;;;;;;;5072465;28;20487;-38
2022/01/13 03:43:03;;;;;;;17.75;8.23;;;;;;;;;;5072679;28;20028;-38
2022/01/13 03:45:29;;;;;;;20.25;8.82;;;;;;;;;;5072575;28;20033;-38
2022/01/13 03:47:54;;;;;;;16.38;7.25;;;;;;;;;;5072593;28;20021;-38
2022/01/13 03:50:20;;;;;;;13.57;6.25;;;;;;;;;;5072245;28;20048;-37
2022/01/13 03:53:01;;;;;;;21.60;7.45;;;;;;;;;;5072296;28;20032;-37
2022/01/13 03:55:36;;;;;;;18.90;8.77;;;;;;;;;;5072554;28;20031;-44
2022/01/13 03:58:20;;;;;;;18.88;8.38;;;;;;;;;;5072459;28;20105;-38
2022/01/13 04:00:56;;;;;;;14.07;6.53;;;;;;;;;;5072154;28;20475;-37
2022/01/13 04:03:22;;;;;;;21.90;6.60;;;;;;;;;;5072328;28;20086;-37
2022/01/13 04:05:59;;;;;;;12.77;5.30;;;;;;;;;;5072111;28;20028;-38
2022/01/13 04:08:25;;;;;;;18.25;7.80;;;;;;;;;;5072155;28;20028;-37
2022/01/13 04:11:06;;;;;;;22.13;7.70;;;;;;;;;;5071965;28;20021;-37
2022/01/13 04:13:57;;;;;;;16.75;7.10;;;;;;;;;;5071967;28;20048;-37
2022/01/13 04:16:19;;;;;;;11.90;6.63;;;;;;;;;;5071514;28;20124;-38
2022/01/13 04:18:46;;;;;;;20.98;9.10;;;;;;;;;;5071832;28;20056;-37
2022/01/13 04:21:11;;;;;;;15.32;7.50;;;;;;;;;;5087430;28;20115;-42
2022/01/13 04:23:37;;;;;;;12.23;6.32;;;;;;;;;;5070577;28;20111;-38
2022/01/13 04:26:07;;;;;;;20.92;7.93;;;;;;;;;;5071610;28;20032;-38
2022/01/13 04:28:36;;;;;;;16.90;5.53;;;;;;;;;;5071777;28;20497;-37
2022/01/13 04:31:02;;;;;;;12.27;5.90;;;;;;;;;;5071643;28;20474;-38
2022/01/13 04:33:33;;;;;;;26.10;9.90;;;;;;;;;;5071552;28;20112;-37
2022/01/13 04:35:59;;;;;;;16.10;5.50;;;;;;;;;;5071705;28;20017;-38
2022/01/13 04:38:24;;;;;;;15.00;6.63;;;;;;;;;;5070642;28;20017;-39
2022/01/13 04:40:56;;;;;;;16.95;8.07;;;;;;;;;;5071375;28;20043;-38
2022/01/13 04:43:22;;;;;;;12.02;4.13;;;;;;;;;;5071647;28;20108;-38
2022/01/13 04:45:48;;;;;;;15.43;6.35;;;;;;;;;;5071524;28;20450;-37
2022/01/13 04:48:13;;;;;;;17.13;7.80;;;;;;;;;;5071375;28;20028;-37
2022/01/13 04:50:39;;;;;;;18.20;9.07;;;;;;;;;;5071487;28;20023;-38
2022/01/13 04:53:04;;;;;;;17.55;6.63;;;;;;;;;;5071281;28;20529;-38
2022/01/13 04:55:32;;;;;;;16.17;8.00;;;;;;;;;;5071340;28;20017;-38
2022/01/13 04:58:01;;;;;;;14.70;7.15;;;;;;;;;;5071678;28;20051;-37
2022/01/13 05:00:27;;;;;;;19.02;9.48;;;;;;;;;;5071375;28;20481;-37
2022/01/13 05:02:53;;;;;;;17.50;7.57;;;;;;;;;;5071572;28;20096;-37
2022/01/13 05:05:18;;;;;;;24.67;9.10;;;;;;;;;;5071232;28;20170;-38
2022/01/13 05:07:43;;;;;;;18.33;7.82;;;;;;;;;;5071505;28;20024;-37
2022/01/13 05:10:09;;;;;;;18.15;6.30;;;;;;;;;;5071200;28;20440;-38
2022/01/13 05:12:43;;;;;;;18.50;8.65;;;;;;;;;;5086696;28;20044;-38
2022/01/13 05:15:17;;;;;;;15.88;6.82;;;;;;;;;;5071146;28;20112;-37
2022/01/13 05:20:16;;;;;;;13.23;6.43;;;;;;;;;;5071406;28;20020;-38
2022/01/13 05:22:41;;;;;;;15.70;5.70;;;;;;;;;;5071270;28;20028;-38
2022/01/13 05:25:07;;;;;;;14.73;7.30;;;;;;;;;;5071269;28;20024;-37
2022/01/13 05:27:32;;;;;;;13.30;4.78;;;;;;;;;;5071336;28;20106;-38
2022/01/13 05:30:01;;;;;;;11.63;5.20;;;;;;;;;;5071203;28;20477;-38
2022/01/13 05:32:26;;;;;;;12.63;5.05;;;;;;;;;;5070926;28;20089;-37
2022/01/13 05:34:52;;;;;;;22.17;8.25;;;;;;;;;;5071035;28;20567;-38
2022/01/13 05:37:17;;;;;;;11.90;6.15;;;;;;;;;;5071069;28;20029;-38
2022/01/13 05:39:42;;;;;;;15.40;7.78;;;;;;;;;;5070836;28;20449;-38
2022/01/13 05:42:08;;;;;;;15.27;6.53;;;;;;;;;;5070820;28;20051;-37
2022/01/13 05:44:38;;;;;;;20.45;7.10;;;;;;;;;;5070783;28;20123;-38
2022/01/13 05:47:04;;;;;;;14.63;7.18;;;;;;;;;;5071125;28;20115;-38
2022/01/13 05:49:30;;;;;;;16.20;6.72;;;;;;;;;;5072979;28;20463;-38
2022/01/13 05:51:55;;;;;;;14.63;6.15;;;;;;;;;;5074805;28;20074;-37
2022/01/13 05:54:20;;;;;;;11.38;6.65;;;;;;;;;;5074575;28;20032;-37
2022/01/13 05:56:46;;;;;;;14.15;6.15;;;;;;;;;;5074574;28;20039;-37
2022/01/13 05:59:11;;;;;;;18.08;7.55;;;;;;;;;;5074521;28;20017;-38
2022/01/13 06:01:37;;;;;;;23.73;8.98;;;;;;;;;;5074471;28;20028;-37
2022/01/13 06:04:02;;;;;;;15.27;5.95;;;;;;;;;;5074520;28;20050;-37
2022/01/13 06:06:27;;;;;;;18.70;8.52;;;;;;;;;;5074445;28;20029;-37
2022/01/13 06:08:53;;;;;;;18.70;8.30;;;;;;;;;;5074403;28;20021;-37
2022/01/13 06:11:22;;;;;;;18.15;8.05;;;;;;;;;;5074199;28;20112;-37
2022/01/13 06:13:47;;;;;;;16.05;7.05;;;;;;;;;;5074306;28;20029;-38
2022/01/13 06:16:13;;;;;;;14.77;7.10;;;;;;;;;;5074272;28;20032;-38
2022/01/13 06:18:38;;;;;;;9.40;5.20;;;;;;;;;;5074268;28;20032;-37
2022/01/13 06:21:04;;;;;;;10.65;5.65;;;;;;;;;;5074034;28;20028;-38
2022/01/13 06:23:29;;;;;;;12.10;6.03;;;;;;;;;;5074442;28;20134;-38
2022/01/13 06:25:57;;;;;;;14.65;6.07;;;;;;;;;;5074069;28;20040;-38
2022/01/13 06:28:22;;;;;;;14.88;6.88;;;;;;;;;;5074270;28;20017;-37
2022/01/13 06:30:48;;;;;;;19.15;8.02;;;;;;;;;;5074342;28;20505;-37
2022/01/13 06:33:13;;;;;;;20.42;7.82;;;;;;;;;;5072440;28;20043;-37
2022/01/13 06:35:39;;;;;;;11.38;5.03;;;;;;;;;;5074035;28;20503;-37
2022/01/13 06:38:05;;;;;;;17.50;6.05;;;;;;;;;;5074114;28;20459;-38
2022/01/13 06:40:30;;;;;;;11.65;4.57;;;;;;;;;;5073831;28;20093;-38
2022/01/13 06:42:56;;;;;;;14.15;5.82;;;;;;;;;;5073855;28;20381;-38
2022/01/13 06:45:21;;;;;;;8.70;4.63;;;;;;;;;;5073889;28;20475;-38
2022/01/13 06:47:46;;;;;;;18.38;7.57;;;;;;;;;;5074010;28;20013;-38
2022/01/13 06:50:12;;;;;;;20.60;8.02;;;;;;;;;;5073933;28;20032;-37
2022/01/13 06:52:38;;;;;;;18.85;7.43;;;;;;;;;;5073748;28;20037;-37
2022/01/13 06:55:04;;;;;;;11.27;6.13;;;;;;;;;;5073425;28;20039;-37
2022/01/13 06:57:30;;;;;;;21.20;7.60;;;;;;;;;;5073507;28;20382;-37
2022/01/13 06:59:55;;;;;;;7.70;5.22;;;;;;;;;;5072832;28;20028;-37
2022/01/13 07:02:23;;;;;;;17.58;8.65;;;;;;;;;;5073039;28;20070;-38
2022/01/13 07:04:48;;;;;;;13.90;5.32;;;;;;;;;;5073423;28;20475;-38
2022/01/13 07:07:14;;;;;;;21.38;5.55;;;;;;;;;;5073287;28;20032;-37
2022/01/13 07:09:39;;;;;;;21.38;6.72;;;;;;;;;;5073294;28;20077;-38
2022/01/13 07:12:05;;;;;;;12.45;5.28;;;;;;;;;;5073108;28;20078;-38
2022/01/13 07:14:30;;;;;;;10.00;4.75;;;;;;;;;;5089129;28;20029;-38
2022/01/13 07:16:55;;;;;;;12.63;5.28;;;;;;;;;;5073340;28;20467;-37
2022/01/13 07:19:21;;;;;;;11.32;7.20;;;;;;;;;;5073077;28;20493;-38
2022/01/13 07:21:47;;;;;;;12.75;5.75;;;;;;;;;;5073081;28;20009;-37
2022/01/13 07:24:13;;;;;;;16.17;6.55;;;;;;;;;;5072901;28;20029;-39
2022/01/13 07:26:39;;;;;;;16.15;5.80;;;;;;;;;;5073269;28;20486;-38
2022/01/13 07:29:05;;;;;;;10.85;3.90;;;;;;;;;;5073144;28;20514;-37
2022/01/13 07:31:31;;;;;;;12.55;5.32;;;;;;;;;;5073009;28;20043;-37
2022/01/13 07:33:56;;;;;;;15.50;5.65;;;;;;;;;;5073148;28;20037;-37
2022/01/13 07:36:22;;;;;;;14.00;6.45;;;;;;;;;;5072854;28;20139;-38
2022/01/13 07:38:47;;;;;;;15.50;5.75;;;;;;;;;;5072738;28;20054;-38
2022/01/13 07:41:13;;;;;;;9.48;5.18;;;;;;;;;;5072362;28;20060;-37
2022/01/13 07:43:42;;;;;;;10.55;5.20;;;;;;;;;;5072637;28;20090;-37
2022/01/13 07:46:08;;;;;;;10.90;4.30;;;;;;;;;;5071165;28;20435;-37
2022/01/13 07:48:33;;;;;;;8.57;4.90;;;;;;;;;;5072715;28;20056;-37
2022/01/13 07:50:59;;;;;;;15.63;5.75;;;;;;;;;;5072535;28;20090;-38
2022/01/13 07:53:24;;;;;;;8.98;4.00;;;;;;;;;;5072093;28;20522;-37
2022/01/13 07:55:49;;;;;;;7.47;4.22;;;;;;;;;;5072455;28;20032;-37
2022/01/13 07:58:15;;;;;;;13.88;4.97;;;;;;;;;;5072282;28;20029;-37
2022/01/13 08:00:42;;;;;;;6.45;4.18;;;;;;;;;;5072228;28;20032;-37
2022/01/13 08:03:07;;;;;;;12.60;6.50;;;;;;;;;;5072499;28;20543;-37
2022/01/13 08:05:33;;;;;;;9.40;4.72;;;;;;;;;;5072158;28;20044;-38
2022/01/13 08:07:58;;;;;;;13.77;5.60;;;;;;;;;;5072166;28;20070;-37
2022/01/13 08:10:24;;;;;;;15.32;4.97;;;;;;;;;;5072022;28;20032;-38
2022/01/13 08:12:49;;;;;;;15.20;5.95;;;;;;;;;;5071621;28;20037;-37
2022/01/13 08:15:15;;;;;;;9.77;4.43;;;;;;;;;;5072234;28;20024;-38
2022/01/13 08:20:29;;;;;;;12.20;5.45;;;;;;;;;;5071911;28;20040;-38
2022/01/13 08:22:55;;;;;;;15.73;6.07;;;;;;;;;;5071817;28;20052;-38
2022/01/13 08:25:21;;;;;;;11.70;5.57;;;;;;;;;;5071821;28;20134;-38
2022/01/13 08:27:47;;;;;;;11.63;5.68;;;;;;;;;;5071769;28;20474;-38
2022/01/13 08:30:12;;;;;;;14.23;6.80;;;;;;;;;;5071949;28;20032;-37
2022/01/13 08:32:38;;;;;;;13.52;5.07;;;;;;;;;;5071886;28;20395;-38
2022/01/13 08:35:05;;;;;;;17.52;7.47;;;;;;;;;;5070368;28;20666;-38
2022/01/13 08:37:32;;;;;;;12.95;5.20;;;;;;;;;;5071631;28;20048;-38
2022/01/13 08:39:58;;;;;;;15.65;7.40;;;;;;;;;;5071433;28;20064;-37
2022/01/13 08:42:24;;;;;;;12.48;5.82;;;;;;;;;;5071644;28;20044;-37
2022/01/13 08:44:50;;;;;;;18.08;5.97;;;;;;;;;;5071488;28;20025;-37
2022/01/13 08:47:16;;;;;;;11.02;4.47;;;;;;;;;;5071472;28;20024;-38
2022/01/13 08:49:41;;;;;;;13.40;7.68;;;;;;;;;;5071423;28;20024;-37
2022/01/13 08:52:07;;;;;;;20.85;6.40;;;;;;;;;;5071362;28;20035;-37
2022/01/13 08:54:33;;;;;;;16.17;6.05;;;;;;;;;;5071731;28;20475;-37
2022/01/13 08:56:58;;;;;;;13.00;4.00;;;;;;;;;;5071631;28;20056;-38
2022/01/13 08:59:24;;;;;;;18.50;9.00;;;;;;;;;;5071362;28;20032;-37
2022/01/13 09:01:49;;;;;;;8.90;4.45;;;;;;;;;;5071284;28;20028;-37
2022/01/13 09:04:15;;;;;;;16.65;5.45;;;;;;;;;;5071554;28;20025;-38
2022/01/13 09:06:40;;;;;;;19.08;5.75;;;;;;;;;;5071673;28;20079;-37
2022/01/13 09:09:06;;;;;;;15.93;5.28;;;;;;;;;;5071513;28;20550;-37
2022/01/13 09:11:31;;;;;;;13.98;5.10;;;;;;;;;;5071134;28;20518;-37
2022/01/13 09:13:58;;;;;;;13.18;4.90;;;;;;;;;;5071180;28;20048;-38
2022/01/13 09:16:25;;;;;;;15.23;6.40;;;;;;;;;;5071455;28;20027;-37
2022/01/13 09:21:23;;;;;;;14.93;7.57;;;;;;;;;;5071052;28;20037;-38
2022/01/13 09:23:49;;;;;;;15.82;5.20;;;;;;;;;;5072198;28;20087;-37
2022/01/13 09:26:14;;;;;;;9.85;5.35;;;;;;;;;;5075410;28;20060;-37
2022/01/13 09:28:40;;;;;;;24.67;8.32;;;;;;;;;;5075584;28;20383;-37
2022/01/13 09:31:06;;;;;;;12.38;5.93;;;;;;;;;;5074717;28;20033;-37
2022/01/13 09:33:32;;;;;;;19.13;7.70;;;;;;;;;;5075262;28;20043;-37
2022/01/13 09:35:57;;;;;;;14.68;5.63;;;;;;;;;;5075446;28;20032;-37
2022/01/13 09:38:23;;;;;;;8.23;4.70;;;;;;;;;;5074836;28;21046;-37
2022/01/13 09:40:52;;;;;;;10.45;4.60;;;;;;;;;;5074882;28;20090;-38
2022/01/13 09:43:20;;;;;;;10.98;4.78;;;;;;;;;;5074821;28;20037;-38
2022/01/13 09:45:46;;;;;;;6.68;3.75;;;;;;;;;;5074871;28;20368;-37
2022/01/13 09:48:12;;;;;;;10.38;3.97;;;;;;;;;;5074857;28;20024;-37
2022/01/13 09:50:38;;;;;;;9.38;3.72;;;;;;;;;;5075022;28;20541;-37
2022/01/13 09:53:04;;;;;;;9.95;5.13;;;;;;;;;;5074515;28;20036;-37
2022/01/13 09:55:29;;;;;;;5.10;1.92;;;;;;;;;;5074735;28;20382;-37
2022/01/13 09:58:00;;;;;;;2.70;1.55;;;;;;;;;;5075036;28;20485;-37
2022/01/13 10:00:26;;;;;;;7.75;3.30;;;;;;;;;;5074577;28;20024;-37
2022/01/13 10:02:52;;;;;;;14.52;4.70;;;;;;;;;;5074488;28;20490;-38
2022/01/13 10:05:18;;;;;;;8.02;4.60;;;;;;;;;;5073230;28;20036;-37
2022/01/13 10:07:45;;;;;;;14.07;5.40;;;;;;;;;;5090080;28;20029;-37
2022/01/13 10:10:15;;;;;;;8.50;3.80;;;;;;;;;;5090073;28;20032;-37
2022/01/13 10:12:45;;;;;;;11.45;4.70;;;;;;;;;;5074218;28;20083;-37
2022/01/13 10:17:45;;;;;;;12.63;3.63;;;;;;;;;;5074389;28;20090;-37
2022/01/13 10:20:11;;;;;;;13.30;5.82;;;;;;;;;;5074225;28;20493;-38
2022/01/13 10:22:37;;;;;;;8.55;3.88;;;;;;;;;;5074138;28;20483;-38
2022/01/13 10:25:02;;;;;;;7.22;3.55;;;;;;;;;;5074102;28;20067;-37
2022/01/13 10:27:30;;;;;;;6.28;3.00;;;;;;;;;;5074250;28;20052;-43
2022/01/13 10:29:57;;;;;;;7.43;4.45;;;;;;;;;;5074206;28;20032;-37
2022/01/13 10:32:31;;;;;;;5.43;3.22;;;;;;;;;;5073933;28;20028;-37
2022/01/13 10:35:01;;;;;;;8.07;3.53;;;;;;;;;;5073851;28;20028;-37
2022/01/13 10:37:30;;;;;;;8.40;3.28;;;;;;;;;;5073830;28;20082;-37
2022/01/13 10:39:57;;;;;;;11.52;3.78;;;;;;;;;;5073654;28;20171;-38
2022/01/13 10:45:08;;;;;;;6.68;3.25;;;;;;;;;;5073875;28;20024;-37
2022/01/13 10:47:36;;;;;;;5.97;3.58;;;;;;;;;;5073569;28;20086;-37
2022/01/13 10:50:09;;;;;;;6.28;3.13;;;;;;;;;;5073769;28;20082;-38
2022/01/13 10:52:35;;;;;;;7.25;3.13;;;;;;;;;;5073517;28;20040;-40
2022/01/13 10:55:21;;;;;;;8.98;3.38;;;;;;;;;;5073691;28;20020;-37
2022/01/13 10:57:47;;;;;;;11.07;4.05;;;;;;;;;;5073183;28;20039;-37
2022/01/13 11:00:15;;;;;;;5.80;4.10;;;;;;;;;;5073801;28;20020;-38
2022/01/13 11:02:41;;;;;;;7.45;2.75;;;;;;;;;;5073372;28;20035;-38
2022/01/13 11:05:10;;;;;;;11.70;4.10;;;;;;;;;;5073325;28;20095;-37
2022/01/13 11:07:36;;;;;;;7.07;2.92;;;;;;;;;;5073557;28;20029;-37
2022/01/13 11:10:03;;;;;;;9.43;4.28;;;;;;;;;;5073654;28;20048;-38
2022/01/13 11:12:32;;;;;;;8.02;2.50;;;;;;;;;;5073277;28;20086;-37
2022/01/13 11:15:04;;;;;;;4.70;3.03;;;;;;;;;;5073203;28;20078;-38
2022/01/13 11:17:30;;;;;;;3.50;2.22;;;;;;;;;;5073481;28;20378;-38
2022/01/13 11:19:57;;;;;;;6.43;2.20;;;;;;;;;;5073358;28;20120;-37
2022/01/13 11:22:22;;;;;;;5.72;2.95;;;;;;;;;;5073264;28;20059;-37
2022/01/13 11:24:48;;;;;;;10.80;2.72;;;;;;;;;;5072977;28;20020;-37
2022/01/13 11:27:16;;;;;;;3.15;2.60;;;;;;;;;;5073169;28;20032;-37
2022/01/13 11:29:43;;;;;;;5.05;2.35;;;;;;;;;;5072926;28;20020;-37
2022/01/13 11:32:09;;;;;;;9.48;3.40;;;;;;;;;;5072681;28;20070;-37
2022/01/13 11:34:35;;;;;;;4.15;2.25;;;;;;;;;;5072888;28;20489;-38
2022/01/13 11:37:01;;;;;;;3.88;2.28;;;;;;;;;;5072837;28;20029;-37
2022/01/13 11:39:37;;;;;;;2.28;1.33;;;;;;;;;;5071324;28;20032;-37
2022/01/13 11:42:04;;;;;;;3.85;2.63;;;;;;;;;;5072563;28;20040;-37
2022/01/13 11:44:30;;;;;;;3.28;1.45;;;;;;;;;;5072674;28;20555;-37
2022/01/13 11:46:55;;;;;;;3.75;1.23;;;;;;;;;;5072027;28;20054;-38
2022/01/13 11:49:36;;;;;;;2.55;1.17;;;;;;;;;;5072422;28;20016;-37
2022/01/13 11:52:13;;;;;;;1.05;0.50;;;;;;;;;;5072478;28;20425;-37
2022/01/13 11:54:39;;;;;;;5.18;2.00;;;;;;;;;;5072370;28;20040;-37
2022/01/13 11:57:22;;;;;;;5.15;2.05;;;;;;;;;;5072400;28;20048;-37
2022/01/13 11:59:56;;;;;;;3.80;1.52;;;;;;;;;;5072462;28;20442;-37
2022/01/13 12:02:22;;;;;;;4.30;2.13;;;;;;;;;;5072200;28;20029;-37
2022/01/13 12:05:03;;;;;;;3.65;1.88;;;;;;;;;;5072272;28;20471;-37
2022/01/13 12:07:39;;;;;;;3.28;1.75;;;;;;;;;;5072422;28;20052;-37
2022/01/13 12:10:09;;;;;;;1.75;1.38;;;;;;;;;;5072208;28;20020;-38
2022/01/13 12:12:38;;;;;;;3.08;1.58;;;;;;;;;;5072053;28;20036;-37
2022/01/13 12:15:19;;;;;;;3.58;1.65;;;;;;;;;;5071988;28;20036;-37
2022/01/13 12:17:49;;;;;;;3.17;1.40;;;;;;;;;;5072336;28;20173;-38
2022/01/13 12:20:21;;;;;;;1.25;1.15;;;;;;;;;;5071875;28;20502;-37
2022/01/13 12:22:57;;;;;;;1.92;1.00;;;;;;;;;;5071831;28;20037;-37
2022/01/13 12:25:31;;;;;;;2.58;1.20;;;;;;;;;;5072119;28;20429;-37
2022/01/13 12:27:58;;;;;;;1.98;0.93;;;;;;;;;;5071879;28;20032;-38
2022/01/13 12:30:26;;;;;;;8.35;1.33;;;;;;;;;;5071738;28;20035;-38
2022/01/13 12:32:54;;;;;;;2.05;1.30;;;;;;;;;;5072010;28;20123;-38
2022/01/13 12:35:39;;;;;;;3.17;1.52;;;;;;;;;;5071540;28;20145;-37
2022/01/13 12:38:07;;;;;;;1.73;1.27;;;;;;;;;;5071582;28;20387;-38
2022/01/13 12:40:43;;;;;;;2.75;1.40;;;;;;;;;;5071434;28;20102;-37
2022/01/13 12:43:21;;;;;;;4.10;1.95;;;;;;;;;;5071477;28;20032;-38
2022/01/13 12:45:46;;;;;;;2.20;1.55;;;;;;;;;;5071805;28;20112;-38
2022/01/13 12:48:16;;;;;;;3.90;1.85;;;;;;;;;;5071598;28;20463;-37
2022/01/13 12:50:44;;;;;;;3.90;1.30;;;;;;;;;;5071490;28;20032;-37
2022/01/13 12:53:12;;;;;;;4.47;1.75;;;;;;;;;;5071215;28;20032;-38
2022/01/13 12:55:40;;;;;;;3.55;1.17;;;;;;;;;;5071579;28;20410;-37
2022/01/13 12:58:06;;;;;;;2.67;2.00;;;;;;;;;;5070694;28;20477;-39
2022/01/13 13:00:32;;;;;;;1.10;1.00;;;;;;;;;;5071576;28;20059;-38
2022/01/13 13:03:05;;;;;;;3.75;1.95;;;;;;;;;;5071258;28;20020;-38
2022/01/13 13:05:38;;;;;;;2.63;1.33;;;;;;;;;;5071521;28;20040;-38
2022/01/13 13:08:05;;;;;;;3.80;1.13;;;;;;;;;;5071289;28;20123;-37
2022/01/13 13:10:31;;;;;;;3.95;3.08;;;;;;;;;;5071241;28;20047;-38
2022/01/13 13:12:57;;;;;;;3.17;1.45;;;;;;;;;;5071019;28;20048;-38
2022/01/13 13:17:49;;;;;;;0.77;0.77;;;;;;;;;;5071233;28;20060;-37
2022/01/13 13:20:26;;;;;;;4.22;1.35;;;;;;;;;;5071041;28;20017;-38
2022/01/13 13:22:55;;;;;;;1.85;1.13;;;;;;;;;;5071402;28;20036;-38
2022/01/13 13:25:33;;;;;;;2.00;1.38;;;;;;;;;;5071352;28;20025;-37
2022/01/13 13:28:17;;;;;;;1.75;0.82;;;;;;;;;;5071118;28;20375;-37
2022/01/13 13:30:53;;;;;;;2.97;1.40;;;;;;;;;;5071213;28;20438;-38
2022/01/13 13:33:28;;;;;;;2.63;1.42;;;;;;;;;;5071043;28;20040;-38
2022/01/13 13:36:02;;;;;;;3.42;1.33;;;;;;;;;;5071013;28;20040;-37
2022/01/13 13:38:27;;;;;;;2.20;1.00;;;;;;;;;;5070973;28;20575;-38
2022/01/13 13:40:53;;;;;;;2.88;1.33;;;;;;;;;;5070715;28;20045;-37
2022/01/13 13:43:20;;;;;;;1.63;0.93;;;;;;;;;;5070907;28;20021;-38
2022/01/13 13:45:45;;;;;;;10.23;1.65;;;;;;;;;;5071293;28;20108;-37
2022/01/13 13:48:11;;;;;;;2.10;1.02;;;;;;;;;;5071186;28;20136;-37
2022/01/13 13:50:38;;;;;;;1.92;1.33;;;;;;;;;;5070906;28;20427;-37
2022/01/13 13:53:05;;;;;;;4.13;1.27;;;;;;;;;;5070660;28;20052;-37
2022/01/13 13:55:31;;;;;;;1.25;0.88;;;;;;;;;;5070657;28;20060;-38
2022/01/13 13:57:57;;;;;;;1.50;1.02;;;;;;;;;;5086565;28;20029;-38
2022/01/13 14:00:25;;;;;;;2.78;1.08;;;;;;;;;;5070776;28;20482;-38
2022/01/13 14:02:53;;;;;;;2.17;1.02;;;;;;;;;;5070615;28;20025;-38
2022/01/13 14:05:21;;;;;;;1.83;1.02;;;;;;;;;;5070729;28;20364;-38
2022/01/13 14:07:50;;;;;;;5.65;1.80;;;;;;;;;;5070754;28;20036;-37
2022/01/13 14:10:23;;;;;;;4.40;1.95;;;;;;;;;;5072155;28;20028;-37
2022/01/13 14:12:56;;;;;;;3.17;1.42;;;;;;;;;;5074225;28;20478;-38
2022/01/13 14:15:22;;;;;;;;;;;;;;;;;;5075027;28;20033;-38
2022/01/13 14:17:49;;;;;;;2.72;1.38;;;;;;;;;;5074284;28;20382;-38
2022/01/13 14:20:26;;;;;;;3.78;1.42;;;;;;;;;;5074096;28;20078;-38
2022/01/13 14:22:54;;;;;;;2.75;1.40;;;;;;;;;;5074489;28;20356;-38
2022/01/13 14:25:20;;;;;;;1.48;1.13;;;;;;;;;;5074041;28;20078;-38
2022/01/13 14:27:56;;;;;;;7.90;1.45;;;;;;;;;;5074233;28;20033;-38
2022/01/13 14:30:36;;;;;;;3.20;0.95;;;;;;;;;;5074002;28;20040;-38
2022/01/13 14:33:20;;;;;;;4.68;1.50;;;;;;;;;;5074009;28;20036;-38
2022/01/13 14:36:01;;;;;;;1.90;1.13;;;;;;;;;;5074126;28;20056;-38
2022/01/13 14:38:46;;;;;;;1.75;1.25;;;;;;;;;;5074034;28;20036;-37
2022/01/13 14:41:16;;;;;;;1.98;1.27;;;;;;;;;;5073601;28;20044;-38
2022/01/13 14:43:55;;;;;;;1.48;1.20;;;;;;;;;;5073914;28;20144;-38
2022/01/13 14:46:21;;;;;;;9.32;1.95;;;;;;;;;;5073560;28;20090;-38
2022/01/13 14:48:46;;;;;;;2.15;1.45;;;;;;;;;;5073749;28;20032;-38
2022/01/13 14:51:13;;;;;;;3.63;1.85;;;;;;;;;;5073664;28;20119;-38
2022/01/13 14:53:42;;;;;;;3.50;1.48;;;;;;;;;;5073534;28;20037;-37
2022/01/13 14:56:09;;;;;;;3.40;1.83;;;;;;;;;;5073699;28;20020;-38
2022/01/13 14:58:35;;;;;;;2.15;1.77;;;;;;;;;;5073513;28;20052;-38
2022/01/13 15:01:02;;;;;;;1.90;1.50;;;;;;;;;;5073543;28;20171;-38
2022/01/13 15:03:28;;;;;;;3.83;1.95;;;;;;;;;;5073507;28;20087;-38
2022/01/13 15:05:53;;;;;;;5.60;1.83;;;;;;;;;;5073314;28;20443;-38